Heat Index SAI AWOS Graphical Display Untitled Document
Sidney Municipal Airport , NY ( N23 )
000
21:49
18/11/19
00
N/A
N/A
30.01
N/A
1027
34(F), 1(C)
33(F), 1(C)
34 F
100%
BKN013 OVC020
7
Heavy Rain
N/A
N/A
21:49 zulu Wind Calm, Altimeter 30.01
METAR KN23 192149Z AUTO 00000KT 7SM RA BKN013 OVC020 01/01 A3001 A02
METAR:
FAA Disclaimer--Advisory Use ONLY, not for flight info-- 6/29/2009: Sidney Airport, operations 607-561-2346, Pilots with cellphones (smartphones) can now view awos at http://www.saiawos3.com/N23
INFO:
Wind Direction:
Wind Speed:
Wind Gust:
Wind Variable:
Altimeter:
Dens Alt:
Elev:
Temp:
Dwpt:
Wind Chill
Rel Humidity:
Ceiling:
Visibility:
Prsnt Wea:
PCPN:
Remarks:
NOTICE--Current weather data is more than 15 minutes old. The SAI AWOS/ASOS Display is inoperative at this time.
How to read the WebPage